createdAt,value
2023-12-16T00:01:05.770Z,93434.72
2023-12-16T00:03:34.353Z,93437.03
2023-12-16T00:06:04.207Z,93450.38
2023-12-16T00:08:32.959Z,93457.41
2023-12-16T00:11:01.593Z,93454.06
2023-12-16T00:13:30.697Z,93458.00
2023-12-16T00:15:59.978Z,93455.06
2023-12-16T00:18:28.979Z,93467.75
2023-12-16T00:20:57.838Z,93472.63
2023-12-16T00:23:26.598Z,93460.91
2023-12-16T00:25:55.230Z,93451.91
2023-12-16T00:28:24.006Z,93453.06
2023-12-16T00:30:52.763Z,93445.22
2023-12-16T00:33:21.745Z,93436.59
2023-12-16T00:35:50.493Z,93418.00
2023-12-16T00:38:19.136Z,93428.00
2023-12-16T00:40:47.869Z,93434.03
2023-12-16T00:43:16.563Z,93443.63
2023-12-16T00:45:45.346Z,93434.78
2023-12-16T00:48:14.100Z,93413.81
2023-12-16T00:50:45.055Z,93412.63
2023-12-16T00:53:14.773Z,93416.53
2023-12-16T00:55:43.680Z,93400.44
2023-12-16T00:58:12.940Z,93404.53
2023-12-16T01:00:42.020Z,93399.66
2023-12-16T01:03:11.194Z,93378.69
2023-12-16T01:05:42.801Z,93376.16
2023-12-16T01:08:11.536Z,93364.56
2023-12-16T01:10:41.157Z,93354.34
2023-12-16T01:13:10.321Z,93349.25
2023-12-16T01:15:39.042Z,93350.03
2023-12-16T01:18:07.937Z,93339.06
2023-12-16T01:20:36.061Z,93322.84
2023-12-16T01:23:04.770Z,93311.13
2023-12-16T01:25:33.426Z,93306.78
2023-12-16T01:28:02.109Z,93305.81
2023-12-16T01:30:31.702Z,93303.09
2023-12-16T01:33:00.526Z,93302.53
2023-12-16T01:35:29.236Z,93291.59
2023-12-16T01:37:57.910Z,93286.13
2023-12-16T01:40:26.761Z,93260.66
2023-12-16T01:42:57.525Z,93297.28
2023-12-16T01:45:26.261Z,93289.47
2023-12-16T01:47:55.055Z,93288.28
2023-12-16T01:50:23.749Z,93281.81
2023-12-16T01:52:54.900Z,93286.09
2023-12-16T01:55:24.199Z,93272.59
2023-12-16T01:57:53.686Z,93262.22
2023-12-16T02:00:25.530Z,93245.78
2023-12-16T02:02:54.297Z,93232.09
2023-12-16T02:05:22.896Z,93233.09
2023-12-16T02:07:52.140Z,93258.28
2023-12-16T02:10:21.235Z,93252.03
2023-12-16T02:12:50.031Z,93260.81
2023-12-16T02:15:19.174Z,93255.50
2023-12-16T02:17:48.391Z,93248.66
2023-12-16T02:20:17.579Z,93228.09
2023-12-16T02:22:49.753Z,93215.97
2023-12-16T02:25:18.654Z,93195.81
2023-12-16T02:27:50.046Z,93215.75
2023-12-16T02:30:19.006Z,93206.00
2023-12-16T02:32:47.785Z,93216.38
2023-12-16T02:35:16.451Z,93202.88
2023-12-16T02:37:45.144Z,93208.56
2023-12-16T02:40:14.271Z,93187.44
2023-12-16T02:42:43.084Z,93189.81
2023-12-16T02:45:11.990Z,93185.91
2023-12-16T02:47:40.939Z,93191.59
2023-12-16T02:50:10.266Z,93187.09
2023-12-16T02:52:38.961Z,93199.41
2023-12-16T02:55:08.121Z,93201.56
2023-12-16T02:57:37.074Z,93184.75
2023-12-16T03:00:07.008Z,93180.88
2023-12-16T03:02:35.720Z,93161.53
2023-12-16T03:05:04.477Z,93175.41
2023-12-16T03:07:33.221Z,93164.06
2023-12-16T03:10:01.911Z,93150.00
2023-12-16T03:12:30.653Z,93152.16
2023-12-16T03:14:59.379Z,93138.88
2023-12-16T03:17:30.914Z,93141.22
2023-12-16T03:19:59.357Z,93151.00
2023-12-16T03:22:28.079Z,93147.09
2023-12-16T03:24:56.876Z,93142.78
2023-12-16T03:27:25.666Z,93128.50
2023-12-16T03:29:54.312Z,93135.72
2023-12-16T03:32:22.972Z,93142.97
2023-12-16T03:34:51.596Z,93140.03
2023-12-16T03:37:20.303Z,93136.72
2023-12-16T03:39:49.043Z,93139.06
2023-12-16T03:42:17.862Z,93131.63
2023-12-16T03:44:49.206Z,93117.16
2023-12-16T03:47:17.924Z,93098.97
2023-12-16T03:49:46.745Z,93105.03
2023-12-16T03:52:15.578Z,93110.50
2023-12-16T03:54:44.599Z,93091.53
2023-12-16T03:57:13.331Z,93100.31
2023-12-16T03:59:42.058Z,93095.25
2023-12-16T04:02:10.792Z,93097.19
2023-12-16T04:04:39.386Z,93077.06
2023-12-16T04:07:08.078Z,93069.81
2023-12-16T04:09:36.862Z,93073.13
2023-12-16T04:12:05.721Z,93080.38
2023-12-16T04:14:39.030Z,93055.53
2023-12-16T04:17:08.622Z,93067.84
2023-12-16T04:19:37.321Z,93061.19
2023-12-16T04:22:05.555Z,93054.56
2023-12-16T04:24:34.423Z,93071.56
2023-12-16T04:27:03.062Z,93069.22
2023-12-16T04:29:31.672Z,93075.28
2023-12-16T04:32:00.503Z,93069.81
2023-12-16T04:34:29.481Z,93062.97
2023-12-16T04:36:58.220Z,93085.47
2023-12-16T04:39:26.887Z,93072.38
2023-12-16T04:41:55.591Z,93055.94
2023-12-16T04:44:24.280Z,93049.09
2023-12-16T04:46:52.925Z,93053.78
2023-12-16T04:49:21.788Z,93048.69
2023-12-16T04:51:50.486Z,93042.41
2023-12-16T04:54:19.237Z,93037.13
2023-12-16T04:56:50.227Z,93021.69
2023-12-16T04:59:18.841Z,93027.53
2023-12-16T05:01:47.567Z,93015.63
2023-12-16T05:04:16.441Z,93010.34
2023-12-16T05:06:45.168Z,93005.06
2023-12-16T05:09:14.906Z,92998.41
2023-12-16T05:11:43.712Z,92987.25
2023-12-16T05:14:12.572Z,92992.94
2023-12-16T05:16:41.253Z,92986.88
2023-12-16T05:19:10.093Z,92991.97
2023-12-16T05:21:38.768Z,92993.72
2023-12-16T05:24:07.537Z,93000.19
2023-12-16T05:26:36.276Z,92976.72
2023-12-16T05:29:05.092Z,92986.09
2023-12-16T05:31:33.948Z,92983.19
2023-12-16T05:34:02.690Z,92977.69
2023-12-16T05:36:31.444Z,92973.59
2023-12-16T05:39:00.077Z,92981.41
2023-12-16T05:41:28.781Z,92971.25
2023-12-16T05:43:57.449Z,92980.25
2023-12-16T05:46:26.054Z,92997.84
2023-12-16T05:48:54.804Z,92976.97
2023-12-16T05:51:23.458Z,92993.56
2023-12-16T05:53:52.084Z,92993.59
2023-12-16T05:56:20.847Z,92982.25
2023-12-16T05:58:49.491Z,92974.44
2023-12-16T06:01:22.634Z,92968.78
2023-12-16T06:03:52.047Z,92961.94
2023-12-16T06:06:20.889Z,92949.81
2023-12-16T06:08:49.629Z,92945.34
2023-12-16T06:11:18.327Z,92940.47
2023-12-16T06:13:47.438Z,92936.56
2023-12-16T06:16:21.080Z,92924.44
2023-12-16T06:18:50.862Z,92920.13
2023-12-16T06:21:19.669Z,92909.78
2023-12-16T06:23:48.437Z,92907.25
2023-12-16T06:26:17.206Z,92907.66
2023-12-16T06:28:45.811Z,92900.22
2023-12-16T06:31:19.223Z,92884.78
2023-12-16T06:33:48.520Z,92885.38
2023-12-16T06:36:17.360Z,92870.94
2023-12-16T06:38:46.122Z,92869.19
2023-12-16T06:41:15.338Z,92861.97
2023-12-16T06:43:44.004Z,92866.28
2023-12-16T06:46:12.635Z,92868.22
2023-12-16T06:48:41.657Z,92884.44
2023-12-16T06:51:10.670Z,92882.09
2023-12-16T06:53:39.327Z,92883.25
2023-12-16T06:56:10.542Z,92860.56
2023-12-16T06:58:40.527Z,92876.59
2023-12-16T07:01:12.116Z,92879.16
2023-12-16T07:03:41.284Z,92883.44
2023-12-16T07:06:12.944Z,92884.78
2023-12-16T07:08:43.210Z,92886.50
2023-12-16T07:11:15.168Z,92867.19
2023-12-16T07:13:44.426Z,92885.50
2023-12-16T07:16:16.949Z,92884.50
2023-12-16T07:18:45.957Z,92881.00
2023-12-16T07:21:14.640Z,92874.72
2023-12-16T07:23:43.367Z,92872.38
2023-12-16T07:26:11.989Z,92885.28
2023-12-16T07:28:40.628Z,92877.47
2023-12-16T07:31:09.472Z,92881.34
2023-12-16T07:33:41.323Z,92885.03
2023-12-16T07:36:10.554Z,92876.63
2023-12-16T07:38:39.272Z,92877.41
2023-12-16T07:41:07.953Z,92886.38
2023-12-16T07:43:36.845Z,92896.94
2023-12-16T07:46:07.358Z,92891.66
2023-12-16T07:48:36.144Z,92877.41
2023-12-16T07:51:04.839Z,92895.00
2023-12-16T07:53:33.467Z,92881.88
2023-12-16T07:56:02.108Z,92872.69
2023-12-16T07:58:30.800Z,92871.31
2023-12-16T08:00:59.825Z,92877.94
2023-12-16T08:03:29.039Z,92881.28
2023-12-16T08:05:57.718Z,92897.50
2023-12-16T08:08:26.483Z,92901.81
2023-12-16T08:10:55.764Z,92906.38
2023-12-16T08:13:24.804Z,92918.50
2023-12-16T08:15:53.570Z,92924.59
2023-12-16T08:18:22.176Z,92943.94
2023-12-16T08:20:51.306Z,92953.72
2023-12-16T08:23:20.149Z,92959.22
2023-12-16T08:25:49.563Z,92954.72
2023-12-16T08:28:19.076Z,92949.44
2023-12-16T08:30:49.664Z,92942.41
2023-12-16T08:33:18.587Z,92947.88
2023-12-16T08:35:47.574Z,92942.75
2023-12-16T08:38:16.317Z,92947.81
2023-12-16T08:40:45.357Z,92933.69
2023-12-16T08:43:14.113Z,92937.75
2023-12-16T08:45:42.958Z,92938.31
2023-12-16T08:48:11.612Z,92940.03
2023-12-16T08:50:40.277Z,92943.94
2023-12-16T08:53:17.933Z,92954.25
2023-12-16T08:55:46.746Z,92956.38
2023-12-16T08:58:15.535Z,92965.94
2023-12-16T09:00:44.252Z,92966.69
2023-12-16T09:03:16.068Z,92961.16
2023-12-16T09:05:44.845Z,92952.47
2023-12-16T09:08:13.523Z,92963.56
2023-12-16T09:10:42.220Z,92974.28
2023-12-16T09:13:11.009Z,92981.28
2023-12-16T09:15:39.793Z,92979.13
2023-12-16T09:18:08.784Z,92990.44
2023-12-16T09:20:37.533Z,93002.75
2023-12-16T09:23:06.168Z,93007.50
2023-12-16T09:25:34.868Z,93010.00
2023-12-16T09:28:03.805Z,93021.34
2023-12-16T09:30:32.780Z,93034.84
2023-12-16T09:33:01.576Z,93013.38
2023-12-16T09:35:30.327Z,93023.97
2023-12-16T09:37:58.928Z,93016.56
2023-12-16T09:40:28.661Z,93015.34
2023-12-16T09:43:05.163Z,93044.72
2023-12-16T09:45:34.993Z,93067.66
2023-12-16T09:48:03.843Z,93064.13
2023-12-16T09:50:34.930Z,93068.44
2023-12-16T09:53:03.643Z,93064.31
2023-12-16T09:55:32.301Z,93051.44
2023-12-16T09:58:02.188Z,93056.13
2023-12-16T10:00:31.227Z,93040.69
2023-12-16T10:03:00.293Z,93055.78
2023-12-16T10:05:31.165Z,93058.56
2023-12-16T10:08:02.071Z,93059.75
2023-12-16T10:10:30.881Z,93055.47
2023-12-16T10:13:05.866Z,93062.31
2023-12-16T10:15:36.059Z,93068.41
2023-12-16T10:18:05.907Z,93080.94
2023-12-16T10:20:34.645Z,93067.22
2023-12-16T10:23:04.523Z,93065.09
2023-12-16T10:25:35.045Z,93062.97
2023-12-16T10:28:04.712Z,93059.66
2023-12-16T10:30:34.343Z,93044.56
2023-12-16T10:33:06.199Z,93052.19
2023-12-16T10:35:35.638Z,93036.38
2023-12-16T10:38:04.822Z,93045.91
2023-12-16T10:40:36.111Z,93048.25
2023-12-16T10:43:06.039Z,93058.81
2023-12-16T10:45:34.674Z,93057.06
2023-12-16T10:48:08.035Z,93064.91
2023-12-16T10:50:40.412Z,93074.31
2023-12-16T10:53:17.013Z,93071.59
2023-12-16T10:55:47.280Z,93072.16
2023-12-16T10:58:30.598Z,93079.59
2023-12-16T11:01:15.200Z,93077.63
2023-12-16T11:03:57.366Z,93089.56
2023-12-16T11:06:41.999Z,93082.53
2023-12-16T11:09:11.643Z,93091.94
2023-12-16T11:11:43.360Z,93090.16
2023-12-16T11:14:13.300Z,93097.81
2023-12-16T11:16:53.911Z,93091.31
2023-12-16T11:19:25.944Z,93082.94
2023-12-16T11:21:53.938Z,93083.88
2023-12-16T11:24:22.683Z,93085.66
2023-12-16T11:26:54.923Z,93089.38
2023-12-16T11:29:27.154Z,93084.84
2023-12-16T11:31:58.096Z,93090.69
2023-12-16T11:34:42.111Z,93095.75
2023-12-16T11:37:10.914Z,93091.19
2023-12-16T11:39:47.769Z,93099.72
2023-12-16T11:42:36.202Z,93102.47
2023-12-16T11:45:05.005Z,93116.03
2023-12-16T11:47:33.653Z,93117.13
2023-12-16T11:50:02.502Z,93111.97
2023-12-16T11:52:31.405Z,93115.09
2023-12-16T11:55:00.805Z,93119.38
2023-12-16T11:57:30.518Z,93126.19
2023-12-16T11:59:59.478Z,93129.31
2023-12-16T12:02:28.154Z,93130.25
2023-12-16T12:04:57.388Z,93130.03
2023-12-16T12:07:26.413Z,93128.91
2023-12-16T12:09:55.460Z,93133.78
2023-12-16T12:12:24.053Z,93126.91
2023-12-16T12:14:52.718Z,93132.16
2023-12-16T12:17:21.593Z,93119.63
2023-12-16T12:19:51.218Z,93118.41
2023-12-16T12:22:23.133Z,93119.81
2023-12-16T12:24:52.852Z,93129.97
2023-12-16T12:27:21.654Z,93121.91
2023-12-16T12:30:03.791Z,93126.94
2023-12-16T12:32:34.731Z,93131.06
2023-12-16T12:35:08.312Z,93128.66
2023-12-16T12:37:42.262Z,93122.97
2023-12-16T12:40:17.072Z,93130.06
2023-12-16T12:43:00.107Z,93133.75
2023-12-16T12:45:35.945Z,93134.81
2023-12-16T12:48:20.149Z,93138.56
2023-12-16T12:50:49.966Z,93145.09
2023-12-16T12:53:26.525Z,93138.38
2023-12-16T12:55:59.171Z,93139.63
2023-12-16T12:58:30.376Z,93145.72
2023-12-16T13:01:05.207Z,93144.94
2023-12-16T13:03:36.141Z,93143.00
2023-12-16T13:06:07.632Z,93145.09
2023-12-16T13:08:38.949Z,93163.59
2023-12-16T13:11:07.774Z,93162.84
2023-12-16T13:13:36.526Z,93163.31
2023-12-16T13:16:05.653Z,93165.66
2023-12-16T13:18:37.787Z,93177.22
2023-12-16T13:21:08.548Z,93165.75
2023-12-16T13:23:37.263Z,93170.19
2023-12-16T13:26:10.007Z,93184.41
2023-12-16T13:28:38.647Z,93182.34
2023-12-16T13:31:08.471Z,93176.84
2023-12-16T13:33:37.809Z,93186.28
2023-12-16T13:36:32.589Z,93179.97
2023-12-16T13:38:56.867Z,93183.50
2023-12-16T13:41:25.504Z,93168.13
2023-12-16T13:43:54.101Z,93177.09
2023-12-16T13:46:22.820Z,93177.50
2023-12-16T13:48:51.642Z,93182.88
2023-12-16T13:51:20.444Z,93184.34
2023-12-16T13:53:49.186Z,93195.16
2023-12-16T13:56:17.874Z,93190.47
2023-12-16T13:58:46.481Z,93186.66
2023-12-16T14:01:15.101Z,93192.97
2023-12-16T14:03:43.912Z,93183.97
2023-12-16T14:06:14.345Z,93196.34
2023-12-16T14:08:43.499Z,93191.47
2023-12-16T14:11:12.142Z,93188.56
2023-12-16T14:13:41.143Z,93192.66
2023-12-16T14:16:10.319Z,93193.66
2023-12-16T14:18:39.156Z,93174.88
2023-12-16T14:21:08.341Z,93195.81
2023-12-16T14:23:37.084Z,93204.03
2023-12-16T14:26:06.363Z,93196.19
2023-12-16T14:28:35.164Z,93193.84
2023-12-16T14:31:04.019Z,93189.94
2023-12-16T14:33:32.749Z,93189.16
2023-12-16T14:36:01.621Z,93189.34
2023-12-16T14:38:30.401Z,93190.31
2023-12-16T14:40:59.033Z,93195.75
2023-12-16T14:43:28.017Z,93199.28
2023-12-16T14:45:56.703Z,93210.56
2023-12-16T14:48:25.787Z,93216.09
2023-12-16T14:50:54.579Z,93207.34
2023-12-16T14:53:23.333Z,93209.31
2023-12-16T14:55:51.985Z,93205.22
2023-12-16T14:58:20.593Z,93211.06
2023-12-16T15:00:49.250Z,93208.13
2023-12-16T15:03:17.971Z,93212.66
2023-12-16T15:05:47.168Z,93213.81
2023-12-16T15:08:15.910Z,93209.13
2023-12-16T15:10:44.617Z,93214.41
2023-12-16T15:13:13.301Z,93212.66
2023-12-16T15:15:44.099Z,93213.22
2023-12-16T15:18:13.896Z,93225.56
2023-12-16T15:20:42.738Z,93236.50
2023-12-16T15:23:11.531Z,93235.28
2023-12-16T15:25:40.168Z,93237.41
2023-12-16T15:28:08.871Z,93230.75
2023-12-16T15:30:37.537Z,93233.50
2023-12-16T15:33:06.365Z,93225.28
2023-12-16T15:35:35.158Z,93231.75
2023-12-16T15:38:03.925Z,93238.16
2023-12-16T15:40:35.571Z,93239.53
2023-12-16T15:43:05.437Z,93236.00
2023-12-16T15:45:34.065Z,93239.25
2023-12-16T15:48:02.859Z,93241.31
2023-12-16T15:50:31.798Z,93248.44
2023-12-16T15:53:00.419Z,93250.94
2023-12-16T15:55:29.156Z,93258.63
2023-12-16T15:57:57.854Z,93266.81
2023-12-16T16:00:28.744Z,93265.25
2023-12-16T16:02:58.582Z,93269.69
2023-12-16T16:05:27.306Z,93261.47
2023-12-16T16:07:56.201Z,93272.22
2023-12-16T16:10:24.884Z,93273.94
2023-12-16T16:12:56.671Z,93272.38
2023-12-16T16:15:25.385Z,93274.66
2023-12-16T16:17:54.108Z,93277.59
2023-12-16T16:20:23.098Z,93278.38
2023-12-16T16:22:51.924Z,93273.53
2023-12-16T16:25:20.579Z,93272.72
2023-12-16T16:27:49.204Z,93289.22
2023-12-16T16:30:18.146Z,93285.16
2023-12-16T16:32:46.973Z,93274.81
2023-12-16T16:35:15.751Z,93281.44
2023-12-16T16:37:44.461Z,93285.41
2023-12-16T16:40:13.562Z,93296.56
2023-12-16T16:42:42.261Z,93294.22
2023-12-16T16:45:11.497Z,93291.09
2023-12-16T16:47:40.640Z,93288.38
2023-12-16T16:50:09.668Z,93291.09
2023-12-16T16:52:40.803Z,93301.13
2023-12-16T16:55:09.978Z,93294.06
2023-12-16T16:57:39.005Z,93302.06
2023-12-16T17:00:11.666Z,93312.03
2023-12-16T17:02:41.118Z,93314.25
2023-12-16T17:05:12.234Z,93312.09
2023-12-16T17:07:41.091Z,93320.53
2023-12-16T17:10:10.308Z,93327.97
2023-12-16T17:12:39.900Z,93319.56
2023-12-16T17:15:09.197Z,93317.59
2023-12-16T17:17:38.245Z,93333.25
2023-12-16T17:20:12.222Z,93331.88
2023-12-16T17:22:41.894Z,93330.13
2023-12-16T17:25:12.387Z,93323.47
2023-12-16T17:27:41.433Z,93318.97
2023-12-16T17:30:10.947Z,93322.66
2023-12-16T17:32:39.819Z,93319.72
2023-12-16T17:35:09.047Z,93323.25
2023-12-16T17:37:37.779Z,93321.50
2023-12-16T17:40:06.897Z,93324.22
2023-12-16T17:42:35.642Z,93320.28
2023-12-16T17:45:04.390Z,93319.09
2023-12-16T17:47:33.263Z,93332.56
2023-12-16T17:50:03.479Z,93327.84
2023-12-16T17:52:32.205Z,93334.31
2023-12-16T17:55:00.829Z,93329.53
2023-12-16T17:57:29.961Z,93328.91
2023-12-16T17:59:58.858Z,93323.72
2023-12-16T18:02:27.481Z,93316.22
2023-12-16T18:04:56.236Z,93307.94
2023-12-16T18:07:24.855Z,93297.38
2023-12-16T18:09:53.445Z,93303.88
2023-12-16T18:12:22.125Z,93312.91
2023-12-16T18:14:50.924Z,93315.88
2023-12-16T18:17:19.681Z,93322.38
2023-12-16T18:19:48.551Z,93322.50
2023-12-16T18:22:17.309Z,93332.03
2023-12-16T18:24:45.912Z,93342.25
2023-12-16T18:27:14.718Z,93340.44
2023-12-16T18:29:43.609Z,93337.22
2023-12-16T18:32:12.224Z,93330.53
2023-12-16T18:34:40.973Z,93311.19
2023-12-16T18:37:09.648Z,93311.22
2023-12-16T18:39:38.584Z,93319.69
2023-12-16T18:42:08.810Z,93317.69
2023-12-16T18:44:37.613Z,93316.72
2023-12-16T18:47:07.364Z,93313.53
2023-12-16T18:49:35.604Z,93307.94
2023-12-16T18:52:04.428Z,93310.97
2023-12-16T18:54:35.158Z,93303.50
2023-12-16T18:57:03.966Z,93307.50
2023-12-16T18:59:32.702Z,93293.72
2023-12-16T19:02:01.324Z,93293.16
2023-12-16T19:04:30.068Z,93294.44
2023-12-16T19:06:58.725Z,93295.13
2023-12-16T19:09:27.473Z,93284.47
2023-12-16T19:11:57.656Z,93289.50
2023-12-16T19:14:26.402Z,93287.38
2023-12-16T19:16:55.442Z,93286.19
2023-12-16T19:19:24.256Z,93277.63
2023-12-16T19:21:52.968Z,93288.22
2023-12-16T19:24:21.708Z,93291.84
2023-12-16T19:26:50.397Z,93286.75
2023-12-16T19:29:19.090Z,93283.19
2023-12-16T19:31:47.729Z,93271.81
2023-12-16T19:34:16.527Z,93284.19
2023-12-16T19:36:47.063Z,93280.34
2023-12-16T19:39:23.868Z,93291.41
2023-12-16T19:41:53.717Z,93270.97
2023-12-16T19:44:23.712Z,93272.13
2023-12-16T19:46:52.615Z,93272.72
2023-12-16T19:49:20.712Z,93269.16
2023-12-16T19:51:51.204Z,93267.84
2023-12-16T19:54:20.790Z,93271.44
2023-12-16T19:56:48.927Z,93274.56
2023-12-16T19:59:17.631Z,93273.69
2023-12-16T20:01:49.564Z,93266.56
2023-12-16T20:04:18.612Z,93259.41
2023-12-16T20:06:47.333Z,93256.75
2023-12-16T20:09:16.208Z,93235.56
2023-12-16T20:11:44.984Z,93246.50
2023-12-16T20:14:14.071Z,93245.16
2023-12-16T20:16:43.561Z,93247.38
2023-12-16T20:19:12.715Z,93250.06
2023-12-16T20:21:41.552Z,93249.19
2023-12-16T20:24:10.260Z,93249.50
2023-12-16T20:26:39.265Z,93247.94
2023-12-16T20:29:08.073Z,93252.41
2023-12-16T20:31:36.906Z,93263.91
2023-12-16T20:34:05.944Z,93258.53
2023-12-16T20:36:35.762Z,93253.19
2023-12-16T20:39:22.764Z,93242.03
2023-12-16T20:41:51.510Z,93242.47
2023-12-16T20:44:20.151Z,93234.44
2023-12-16T20:46:48.928Z,93227.88
2023-12-16T20:49:17.774Z,93227.09
2023-12-16T20:51:46.511Z,93233.44
2023-12-16T20:54:15.477Z,93236.34
2023-12-16T20:56:44.363Z,93228.41
2023-12-16T20:59:13.009Z,93233.44
2023-12-16T21:01:41.686Z,93210.16
2023-12-16T21:04:10.443Z,93238.25
2023-12-16T21:06:39.376Z,93231.66
2023-12-16T21:09:08.180Z,93231.09
2023-12-16T21:11:36.967Z,93249.94
2023-12-16T21:14:05.739Z,93243.25
2023-12-16T21:16:34.425Z,93250.28
2023-12-16T21:19:03.414Z,93240.91
2023-12-16T21:21:31.572Z,93247.72
2023-12-16T21:24:00.254Z,93246.72
2023-12-16T21:26:29.260Z,93250.28
2023-12-16T21:28:58.991Z,93253.19
2023-12-16T21:31:28.111Z,93256.63
2023-12-16T21:34:00.096Z,93241.78
2023-12-16T21:36:30.692Z,93236.09
2023-12-16T21:38:59.414Z,93241.78
2023-12-16T21:41:27.421Z,93242.13
2023-12-16T21:43:58.124Z,93240.69
2023-12-16T21:46:26.970Z,93242.78
2023-12-16T21:48:55.797Z,93237.88
2023-12-16T21:51:24.557Z,93237.09
2023-12-16T21:53:53.273Z,93245.16
2023-12-16T21:56:23.954Z,93247.72
2023-12-16T21:58:52.557Z,93246.59
2023-12-16T22:01:21.784Z,93238.03
2023-12-16T22:03:51.507Z,93232.34
2023-12-16T22:06:20.898Z,93232.78
2023-12-16T22:08:55.538Z,93241.81
2023-12-16T22:11:25.247Z,93235.25
2023-12-16T22:13:54.291Z,93246.94
2023-12-16T22:16:23.734Z,93244.38
2023-12-16T22:18:52.481Z,93250.63
2023-12-16T22:21:21.205Z,93247.94
2023-12-16T22:23:49.910Z,93246.94
2023-12-16T22:26:18.642Z,93254.06
2023-12-16T22:28:47.943Z,93258.44
2023-12-16T22:31:16.988Z,93256.97
2023-12-16T22:33:45.973Z,93263.88
2023-12-16T22:36:15.913Z,93266.56
2023-12-16T22:38:44.783Z,93277.81
2023-12-16T22:41:14.416Z,93276.47
2023-12-16T22:43:43.099Z,93286.38
2023-12-16T22:46:12.065Z,93288.38
2023-12-16T22:48:41.007Z,93285.47
2023-12-16T22:51:10.485Z,93276.88
2023-12-16T22:53:39.240Z,93287.22
2023-12-16T22:56:08.401Z,93277.63
2023-12-16T22:58:40.324Z,93290.41
2023-12-16T23:01:10.497Z,93285.06
2023-12-16T23:03:39.555Z,93281.81
2023-12-16T23:06:10.697Z,93279.13
2023-12-16T23:08:40.334Z,93274.09
2023-12-16T23:11:10.685Z,93284.41
2023-12-16T23:13:39.877Z,93278.94
2023-12-16T23:16:09.772Z,93284.59
2023-12-16T23:18:38.613Z,93293.34
2023-12-16T23:21:09.003Z,93286.31
2023-12-16T23:23:37.749Z,93292.66
2023-12-16T23:26:06.636Z,93287.94
2023-12-16T23:28:35.362Z,93294.50
2023-12-16T23:31:11.257Z,93293.94
2023-12-16T23:33:44.993Z,93288.47
2023-12-16T23:36:14.179Z,93285.75
2023-12-16T23:38:43.125Z,93290.88
2023-12-16T23:41:19.582Z,93293.50
2023-12-16T23:43:51.743Z,93290.03
2023-12-16T23:46:22.962Z,93286.47
2023-12-16T23:48:51.821Z,93282.00
2023-12-16T23:51:20.494Z,93279.88
2023-12-16T23:53:50.024Z,93284.63
2023-12-16T23:56:19.286Z,93275.59
2023-12-16T23:58:47.964Z,93277.59
